Amberson, Pennsylvania
Current Conditions -  °F | °C
As of 5:53 PM on Wednesday 17 Dec 2014 (Local Time) from KHGR Reporting Station
Broken Clouds Broken Clouds  
Wind Chill: -1°   Ceiling: 4300
Heat Index:   Visibility: 10mi
Dew Point: -5°   Wind: 18mph
Humidity: 53%   Direction: 280°W
Pressure: 30.02"   Gusts: 28mph
Location:  40.17°N, 77.68°W
Report Text: KHGR 172253Z 28016G24KT 10SM BKN043 04/M05 A3002 RMK AO2 SLP180 T00391050
Loading
Personal Weather Stations






























Interactive Weather Map New forecast layout! Learn more

10-Day Weather Forecast

Advertisements
Track Severe Weather on mobile